Terminal Aerodrome Forecast
Issued by NWS Tulsa, OK

Home | Current Version | Previous Version | Text Only | Print | Product List | Glossary On
Versions: 1 2 3 4 5 6 7 8 9 10 11 12
082
FTUS44 KTSA 031120
TAFFSM
TAF
KFSM 031120Z 0312/0412 08005KT P6SM -RA OVC050
      TEMPO 0314/0318 4SM -RA BKN025
     FM031800 08006KT 4SM -RA BR OVC012
     FM032100 08008KT 2SM -RA BR OVC007=

USA.gov is the U.S. government's official web portal to all federal, state and local government web resources and services.